createdAt,value
2017-11-10T00:00:09.504Z,9.84
2017-11-10T00:00:35.625Z,9.83
2017-11-10T00:01:01.808Z,9.77
2017-11-10T00:01:27.951Z,9.8
2017-11-10T00:01:54.133Z,9.84
2017-11-10T00:02:20.223Z,9.69
2017-11-10T00:02:46.347Z,9.69
2017-11-10T00:03:12.472Z,9.68
2017-11-10T00:03:38.597Z,9.66
2017-11-10T00:04:04.721Z,9.65
2017-11-10T00:04:30.877Z,9.61
2017-11-10T00:04:56.982Z,9.72
2017-11-10T00:05:23.132Z,9.77
2017-11-10T00:05:49.256Z,9.66
2017-11-10T00:06:15.367Z,9.66
2017-11-10T00:06:41.496Z,9.62
2017-11-10T00:07:07.612Z,9.66
2017-11-10T00:07:33.749Z,9.61
2017-11-10T00:07:59.878Z,9.68
2017-11-10T00:08:26.010Z,9.66
2017-11-10T00:08:52.162Z,9.66
2017-11-10T00:09:18.293Z,9.65
2017-11-10T00:09:44.425Z,9.65
2017-11-10T00:10:10.563Z,9.64
2017-11-10T00:10:36.723Z,9.72
2017-11-10T00:11:02.883Z,9.74
2017-11-10T00:11:28.996Z,9.65
2017-11-10T00:11:55.105Z,9.62
2017-11-10T00:12:21.231Z,9.69
2017-11-10T00:12:47.349Z,9.62
2017-11-10T00:13:13.465Z,9.69
2017-11-10T00:13:39.604Z,9.72
2017-11-10T00:14:05.750Z,9.58
2017-11-10T00:14:31.922Z,9.65
2017-11-10T00:14:57.986Z,9.61
2017-11-10T00:15:24.113Z,9.66
2017-11-10T00:15:50.252Z,9.61
2017-11-10T00:16:16.392Z,9.66
2017-11-10T00:16:42.509Z,9.64
2017-11-10T00:17:08.653Z,9.69
2017-11-10T00:17:34.814Z,9.59
2017-11-10T00:18:00.916Z,9.68
2017-11-10T00:18:27.035Z,9.65
2017-11-10T00:18:53.168Z,9.61
2017-11-10T00:19:19.283Z,9.65
2017-11-10T00:19:45.409Z,9.61
2017-11-10T00:20:11.577Z,9.65
2017-11-10T00:20:37.694Z,9.62
2017-11-10T00:21:03.843Z,9.68
2017-11-10T00:21:29.984Z,9.64
2017-11-10T00:21:56.090Z,9.65
2017-11-10T00:22:22.237Z,9.68
2017-11-10T00:22:48.364Z,9.65
2017-11-10T00:23:14.493Z,9.62
2017-11-10T00:23:40.643Z,9.59
2017-11-10T00:24:06.757Z,9.65
2017-11-10T00:24:32.883Z,9.65
2017-11-10T00:24:59.045Z,9.69
2017-11-10T00:25:25.180Z,9.65
2017-11-10T00:25:51.297Z,9.61
2017-11-10T00:26:17.420Z,9.59
2017-11-10T00:26:43.571Z,9.61
2017-11-10T00:27:09.700Z,9.73
2017-11-10T00:27:35.819Z,9.68
2017-11-10T00:28:01.982Z,9.77
2017-11-10T00:28:28.098Z,9.73
2017-11-10T00:28:54.224Z,9.68
2017-11-10T00:29:20.405Z,9.66
2017-11-10T00:29:46.523Z,9.66
2017-11-10T00:30:12.651Z,9.73
2017-11-10T00:30:38.778Z,9.66
2017-11-10T00:31:04.894Z,9.74
2017-11-10T00:31:31.014Z,9.73
2017-11-10T00:31:57.144Z,9.73
2017-11-10T00:32:23.289Z,9.74
2017-11-10T00:32:49.430Z,9.66
2017-11-10T00:33:15.546Z,9.66
2017-11-10T00:33:41.695Z,9.66
2017-11-10T00:34:07.829Z,9.65
2017-11-10T00:34:33.959Z,9.64
2017-11-10T00:35:00.085Z,9.62
2017-11-10T00:35:26.211Z,9.72
2017-11-10T00:35:52.346Z,9.68
2017-11-10T00:36:18.492Z,9.65
2017-11-10T00:36:44.609Z,9.69
2017-11-10T00:37:11.241Z,9.65
2017-11-10T00:37:37.372Z,9.64
2017-11-10T00:38:03.555Z,9.61
2017-11-10T00:38:29.706Z,9.61
2017-11-10T00:38:55.825Z,9.62
2017-11-10T00:39:21.963Z,9.62
2017-11-10T00:39:48.110Z,9.56
2017-11-10T00:40:14.246Z,9.66
2017-11-10T00:40:40.361Z,9.56
2017-11-10T00:41:06.489Z,9.65
2017-11-10T00:41:32.641Z,9.65
2017-11-10T00:41:58.753Z,9.64
2017-11-10T00:42:24.887Z,9.61
2017-11-10T00:42:51.043Z,9.58
2017-11-10T00:43:17.213Z,9.64
2017-11-10T00:43:43.359Z,9.62
2017-11-10T00:44:09.524Z,9.65
2017-11-10T00:44:35.654Z,9.66
2017-11-10T00:45:01.816Z,9.61
2017-11-10T00:45:27.948Z,9.72
2017-11-10T00:45:54.097Z,9.68
2017-11-10T00:46:20.204Z,9.68
2017-11-10T00:46:46.321Z,9.69
2017-11-10T00:47:12.487Z,9.66
2017-11-10T00:47:38.599Z,9.65
2017-11-10T00:48:04.714Z,9.74
2017-11-10T00:48:30.836Z,9.77
2017-11-10T00:48:56.991Z,9.65
2017-11-10T00:49:23.135Z,9.66
2017-11-10T00:49:49.263Z,9.69
2017-11-10T00:50:15.408Z,9.72
2017-11-10T00:50:41.549Z,9.69
2017-11-10T00:51:07.688Z,9.56
2017-11-10T00:51:33.806Z,9.66
2017-11-10T00:51:59.925Z,9.66
2017-11-10T00:52:26.069Z,9.56
2017-11-10T00:52:52.242Z,9.56
2017-11-10T00:53:18.367Z,9.51
2017-11-10T00:53:44.487Z,9.54
2017-11-10T00:54:10.614Z,9.51
2017-11-10T00:54:36.743Z,9.54
2017-11-10T00:55:02.909Z,9.62
2017-11-10T00:55:29.021Z,9.58
2017-11-10T00:55:55.144Z,9.61
2017-11-10T00:56:21.272Z,9.58
2017-11-10T00:56:47.420Z,9.56
2017-11-10T00:57:13.579Z,9.61
2017-11-10T00:57:39.705Z,9.64
2017-11-10T00:58:05.823Z,9.65
2017-11-10T00:58:31.947Z,9.56
2017-11-10T00:58:58.062Z,9.59
2017-11-10T00:59:24.192Z,9.56
2017-11-10T00:59:50.309Z,9.62
2017-11-10T01:00:16.431Z,9.61
2017-11-10T01:00:42.567Z,9.55
2017-11-10T01:01:08.684Z,9.61
2017-11-10T01:01:34.811Z,9.54
2017-11-10T01:02:00.919Z,9.61
2017-11-10T01:02:27.069Z,9.54
2017-11-10T01:02:53.206Z,9.56
2017-11-10T01:03:19.326Z,9.64
2017-11-10T01:03:45.448Z,9.56
2017-11-10T01:04:11.573Z,9.61
2017-11-10T01:04:37.691Z,9.61
2017-11-10T01:05:03.816Z,9.56
2017-11-10T01:05:29.936Z,9.62
2017-11-10T01:05:56.054Z,9.64
2017-11-10T01:06:22.180Z,9.61
2017-11-10T01:06:48.302Z,9.55
2017-11-10T01:07:14.420Z,9.55
2017-11-10T01:07:40.540Z,9.51
2017-11-10T01:08:06.664Z,9.61
2017-11-10T01:08:32.781Z,9.61
2017-11-10T01:08:58.932Z,9.64
2017-11-10T01:09:25.043Z,9.64
2017-11-10T01:09:51.168Z,9.65
2017-11-10T01:10:17.294Z,9.74
2017-11-10T01:10:43.410Z,9.58
2017-11-10T01:11:09.530Z,9.73
2017-11-10T01:11:35.661Z,9.61
2017-11-10T01:12:01.771Z,9.65
2017-11-10T01:12:27.897Z,9.59
2017-11-10T01:12:54.015Z,9.65
2017-11-10T01:13:20.135Z,9.61
2017-11-10T01:13:46.260Z,9.62
2017-11-10T01:14:12.380Z,9.65
2017-11-10T01:14:38.520Z,9.46
2017-11-10T01:15:04.642Z,9.51
2017-11-10T01:15:30.763Z,9.55
2017-11-10T01:15:56.879Z,9.56
2017-11-10T01:16:22.995Z,9.61
2017-11-10T01:16:49.120Z,9.55
2017-11-10T01:17:15.238Z,9.55
2017-11-10T01:17:41.363Z,9.56
2017-11-10T01:18:07.485Z,9.66
2017-11-10T01:18:33.602Z,9.58
2017-11-10T01:18:59.728Z,9.72
2017-11-10T01:19:25.874Z,9.64
2017-11-10T01:19:51.989Z,9.61
2017-11-10T01:20:18.108Z,9.58
2017-11-10T01:20:44.236Z,9.62
2017-11-10T01:21:10.356Z,9.69
2017-11-10T01:21:36.507Z,9.62
2017-11-10T01:22:02.651Z,9.62
2017-11-10T01:22:28.771Z,9.61
2017-11-10T01:22:54.895Z,9.59
2017-11-10T01:23:21.024Z,9.69
2017-11-10T01:23:47.141Z,9.73
2017-11-10T01:24:13.257Z,9.69
2017-11-10T01:24:39.377Z,9.73
2017-11-10T01:25:05.493Z,9.79
2017-11-10T01:25:31.619Z,9.64
2017-11-10T01:25:57.730Z,9.64
2017-11-10T01:26:23.856Z,9.59
2017-11-10T01:26:49.973Z,9.56
2017-11-10T01:27:16.097Z,9.59
2017-11-10T01:27:42.224Z,9.59
2017-11-10T01:28:08.363Z,9.61
2017-11-10T01:28:34.478Z,9.56
2017-11-10T01:29:00.605Z,9.54
2017-11-10T01:29:26.749Z,9.58
2017-11-10T01:29:52.843Z,9.61
2017-11-10T01:30:18.988Z,9.54
2017-11-10T01:30:45.106Z,9.46
2017-11-10T01:31:11.230Z,9.54
2017-11-10T01:31:37.345Z,9.47
2017-11-10T01:32:03.465Z,9.48
2017-11-10T01:32:29.594Z,9.48
2017-11-10T01:32:55.710Z,9.51
2017-11-10T01:33:21.835Z,9.46
2017-11-10T01:33:47.950Z,9.48
2017-11-10T01:34:14.076Z,9.48
2017-11-10T01:34:40.201Z,9.44
2017-11-10T01:35:06.317Z,9.41
2017-11-10T01:35:32.438Z,9.55
2017-11-10T01:35:58.561Z,9.47
2017-11-10T01:36:24.684Z,9.46
2017-11-10T01:36:50.823Z,9.54
2017-11-10T01:37:16.948Z,9.58
2017-11-10T01:37:43.067Z,9.55
2017-11-10T01:38:09.188Z,9.41
2017-11-10T01:38:35.310Z,9.5
2017-11-10T01:39:01.430Z,9.46
2017-11-10T01:39:27.548Z,9.61
2017-11-10T01:39:53.666Z,9.64
2017-11-10T01:40:19.788Z,9.58
2017-11-10T01:40:45.911Z,9.61
2017-11-10T01:41:12.034Z,9.58
2017-11-10T01:41:38.155Z,9.62
2017-11-10T01:42:04.273Z,9.61
2017-11-10T01:42:30.389Z,9.66
2017-11-10T01:42:56.514Z,9.59
2017-11-10T01:43:22.634Z,9.72
2017-11-10T01:43:48.761Z,9.58
2017-11-10T01:44:14.887Z,9.66
2017-11-10T01:44:41.007Z,9.56
2017-11-10T01:45:07.125Z,9.59
2017-11-10T01:45:33.260Z,9.61
2017-11-10T01:45:59.387Z,9.62
2017-11-10T01:46:25.511Z,9.58
2017-11-10T01:46:51.627Z,9.61
2017-11-10T01:47:17.750Z,9.59
2017-11-10T01:47:43.874Z,9.62
2017-11-10T01:48:09.988Z,9.59
2017-11-10T01:48:36.113Z,9.62
2017-11-10T01:49:02.242Z,9.59
2017-11-10T01:49:28.343Z,9.64
2017-11-10T01:49:54.469Z,9.62
2017-11-10T01:50:20.594Z,9.55
2017-11-10T01:50:46.715Z,9.56
2017-11-10T01:51:12.831Z,9.55
2017-11-10T01:51:38.961Z,9.55
2017-11-10T01:52:05.105Z,9.62
2017-11-10T01:52:31.223Z,9.65
2017-11-10T01:52:57.345Z,9.66
2017-11-10T01:53:23.462Z,9.62
2017-11-10T01:53:49.591Z,9.55
2017-11-10T01:54:15.710Z,9.59
2017-11-10T01:54:41.832Z,9.58
2017-11-10T01:55:07.946Z,9.56
2017-11-10T01:55:34.071Z,9.56
2017-11-10T01:56:00.191Z,9.51
2017-11-10T01:56:26.319Z,9.55
2017-11-10T01:56:52.444Z,9.55
2017-11-10T01:57:18.563Z,9.59
2017-11-10T01:57:44.679Z,9.58
2017-11-10T01:58:10.795Z,9.56
2017-11-10T01:58:36.919Z,9.56
2017-11-10T01:59:03.040Z,9.55
2017-11-10T01:59:29.156Z,9.59
2017-11-10T01:59:55.277Z,9.58
2017-11-10T02:00:21.404Z,9.58
2017-11-10T02:00:47.539Z,9.55
2017-11-10T02:01:13.665Z,9.54
2017-11-10T02:01:39.781Z,9.51
2017-11-10T02:02:05.902Z,9.47
2017-11-10T02:02:32.029Z,9.44
2017-11-10T02:02:58.164Z,9.4
2017-11-10T02:03:24.284Z,9.43
2017-11-10T02:03:50.409Z,9.41
2017-11-10T02:04:16.552Z,9.43
2017-11-10T02:04:42.686Z,9.46
2017-11-10T02:05:08.805Z,9.44
2017-11-10T02:05:34.953Z,9.5
2017-11-10T02:06:01.076Z,9.44
2017-11-10T02:06:27.197Z,9.44
2017-11-10T02:06:53.320Z,9.41
2017-11-10T02:07:19.437Z,9.48
2017-11-10T02:07:45.576Z,9.46
2017-11-10T02:08:11.679Z,9.47
2017-11-10T02:08:37.802Z,9.5
2017-11-10T02:09:03.922Z,9.5
2017-11-10T02:09:30.040Z,9.41
2017-11-10T02:09:56.164Z,9.55
2017-11-10T02:10:22.284Z,9.44
2017-11-10T02:10:48.406Z,9.46
2017-11-10T02:11:14.532Z,9.34
2017-11-10T02:11:40.650Z,9.39
2017-11-10T02:12:06.769Z,9.34
2017-11-10T02:12:32.916Z,9.44
2017-11-10T02:12:59.033Z,9.34
2017-11-10T02:13:25.164Z,9.44
2017-11-10T02:13:51.294Z,9.44
2017-11-10T02:14:17.405Z,9.47
2017-11-10T02:14:43.538Z,9.47
2017-11-10T02:15:09.666Z,9.47
2017-11-10T02:15:35.786Z,9.5
2017-11-10T02:16:01.910Z,9.55
2017-11-10T02:16:28.065Z,9.58
2017-11-10T02:16:54.185Z,9.64
2017-11-10T02:17:20.299Z,9.55
2017-11-10T02:17:46.441Z,9.59
2017-11-10T02:18:12.561Z,9.62
2017-11-10T02:18:38.674Z,9.59
2017-11-10T02:19:04.796Z,9.61
2017-11-10T02:19:30.919Z,9.62
2017-11-10T02:19:57.038Z,9.64
2017-11-10T02:20:23.164Z,9.65
2017-11-10T02:20:49.286Z,9.65
2017-11-10T02:21:15.400Z,9.65
2017-11-10T02:21:41.526Z,9.65
2017-11-10T02:22:07.643Z,9.72
2017-11-10T02:22:33.773Z,9.69
2017-11-10T02:22:59.890Z,9.66
2017-11-10T02:23:26.004Z,9.68
2017-11-10T02:23:52.131Z,9.61
2017-11-10T02:24:18.246Z,9.69
2017-11-10T02:24:44.371Z,9.79
2017-11-10T02:25:10.515Z,9.82
2017-11-10T02:25:36.632Z,9.73
2017-11-10T02:26:02.757Z,9.66
2017-11-10T02:26:28.874Z,9.65
2017-11-10T02:26:54.991Z,9.69
2017-11-10T02:27:21.114Z,9.69
2017-11-10T02:27:47.233Z,9.74
2017-11-10T02:28:13.377Z,9.65
2017-11-10T02:28:39.475Z,9.65
2017-11-10T02:29:05.603Z,9.68
2017-11-10T02:29:31.723Z,9.77
2017-11-10T02:29:57.843Z,9.69
2017-11-10T02:30:23.966Z,9.72
2017-11-10T02:30:50.086Z,9.62
2017-11-10T02:31:16.207Z,9.59
2017-11-10T02:31:42.324Z,9.62
2017-11-10T02:32:08.448Z,9.65
2017-11-10T02:32:34.566Z,9.66
2017-11-10T02:33:00.683Z,9.64
2017-11-10T02:33:26.812Z,9.65
2017-11-10T02:33:52.933Z,9.72
2017-11-10T02:34:19.048Z,9.64
2017-11-10T02:34:45.194Z,9.72
2017-11-10T02:35:11.310Z,9.77
2017-11-10T02:35:37.432Z,9.76
2017-11-10T02:36:03.554Z,9.72
2017-11-10T02:36:29.680Z,9.72
2017-11-10T02:36:55.800Z,9.76
2017-11-10T02:37:21.926Z,9.74
2017-11-10T02:37:48.041Z,9.66
2017-11-10T02:38:14.163Z,9.74
2017-11-10T02:38:40.279Z,9.69
2017-11-10T02:39:06.400Z,9.65
2017-11-10T02:39:32.522Z,9.64
2017-11-10T02:39:58.640Z,9.68
2017-11-10T02:40:24.757Z,9.61
2017-11-10T02:40:50.883Z,9.64
2017-11-10T02:41:17.007Z,9.62
2017-11-10T02:41:43.123Z,9.56
2017-11-10T02:42:09.256Z,9.69
2017-11-10T02:42:35.381Z,9.65
2017-11-10T02:43:01.504Z,9.64
2017-11-10T02:43:27.639Z,9.66
2017-11-10T02:43:53.761Z,9.68
2017-11-10T02:44:19.900Z,9.66
2017-11-10T02:44:46.023Z,9.65
2017-11-10T02:45:12.153Z,9.65
2017-11-10T02:45:38.290Z,9.77
2017-11-10T02:46:04.406Z,9.65
2017-11-10T02:46:30.533Z,9.64
2017-11-10T02:46:56.650Z,9.65
2017-11-10T02:47:22.770Z,9.69
2017-11-10T02:47:48.895Z,9.73
2017-11-10T02:48:15.010Z,9.73
2017-11-10T02:48:41.130Z,9.72
2017-11-10T02:49:07.256Z,9.74
2017-11-10T02:49:33.374Z,9.62
2017-11-10T02:49:59.490Z,9.73
2017-11-10T02:50:25.612Z,9.58
2017-11-10T02:50:51.743Z,9.62
2017-11-10T02:51:17.872Z,9.65
2017-11-10T02:51:43.996Z,9.72
2017-11-10T02:52:10.124Z,9.64
2017-11-10T02:52:36.238Z,9.61
2017-11-10T02:53:02.363Z,9.58
2017-11-10T02:53:28.480Z,9.56
2017-11-10T02:53:54.601Z,9.51
2017-11-10T02:54:20.725Z,9.44
2017-11-10T02:54:46.840Z,9.51
2017-11-10T02:55:12.968Z,9.55
2017-11-10T02:55:39.081Z,9.62
2017-11-10T02:56:05.226Z,9.59
2017-11-10T02:56:31.362Z,9.58
2017-11-10T02:56:57.477Z,9.64
2017-11-10T02:57:23.589Z,9.64
2017-11-10T02:57:49.708Z,9.66
2017-11-10T02:58:15.830Z,9.61
2017-11-10T02:58:41.949Z,9.62
2017-11-10T02:59:08.071Z,9.62
2017-11-10T02:59:34.192Z,9.62
2017-11-10T03:00:00.314Z,9.62
2017-11-10T03:00:26.452Z,9.55
2017-11-10T03:00:52.574Z,9.59
2017-11-10T03:01:18.704Z,9.64
2017-11-10T03:01:44.838Z,9.54
2017-11-10T03:02:10.964Z,9.55
2017-11-10T03:02:37.085Z,9.56
2017-11-10T03:03:03.200Z,9.61
2017-11-10T03:03:29.316Z,9.56
2017-11-10T03:03:55.443Z,9.47
2017-11-10T03:04:21.562Z,9.41
2017-11-10T03:04:47.683Z,9.47
2017-11-10T03:05:13.802Z,9.55
2017-11-10T03:05:39.932Z,9.47
2017-11-10T03:06:06.052Z,9.48
2017-11-10T03:06:32.166Z,9.54
2017-11-10T03:06:58.292Z,9.59
2017-11-10T03:07:24.410Z,9.58
2017-11-10T03:07:50.553Z,9.56
2017-11-10T03:08:16.679Z,9.51
2017-11-10T03:08:42.795Z,9.59
2017-11-10T03:09:08.918Z,9.59
2017-11-10T03:09:35.041Z,9.58
2017-11-10T03:10:01.165Z,9.65
2017-11-10T03:10:27.280Z,9.55
2017-11-10T03:10:53.405Z,9.58
2017-11-10T03:11:19.527Z,9.58
2017-11-10T03:11:45.648Z,9.58
2017-11-10T03:12:11.773Z,9.58
2017-11-10T03:12:37.889Z,9.55
2017-11-10T03:13:04.015Z,9.56
2017-11-10T03:13:30.130Z,9.59
2017-11-10T03:13:56.249Z,9.51
2017-11-10T03:14:22.375Z,9.61
2017-11-10T03:14:48.510Z,9.61
2017-11-10T03:15:14.640Z,9.48
2017-11-10T03:15:40.761Z,9.44
2017-11-10T03:16:06.878Z,9.43
2017-11-10T03:16:33.021Z,9.48
2017-11-10T03:16:59.137Z,9.46
2017-11-10T03:17:25.258Z,9.51
2017-11-10T03:17:51.382Z,9.5
2017-11-10T03:18:17.500Z,9.51
2017-11-10T03:18:43.647Z,9.55
2017-11-10T03:19:09.768Z,9.56
2017-11-10T03:19:35.888Z,9.5
2017-11-10T03:20:02.024Z,9.55
2017-11-10T03:20:28.122Z,9.56
2017-11-10T03:20:54.263Z,9.58
2017-11-10T03:21:20.376Z,9.5
2017-11-10T03:21:46.488Z,9.44
2017-11-10T03:22:12.615Z,9.46
2017-11-10T03:22:38.755Z,9.43
2017-11-10T03:23:04.873Z,9.43
2017-11-10T03:23:30.995Z,9.41
2017-11-10T03:23:57.115Z,9.44
2017-11-10T03:24:23.236Z,9.48
2017-11-10T03:24:49.359Z,9.48
2017-11-10T03:25:15.486Z,9.5
2017-11-10T03:25:41.599Z,9.4
2017-11-10T03:26:07.726Z,9.47
2017-11-10T03:26:33.839Z,9.43
2017-11-10T03:26:59.955Z,9.5
2017-11-10T03:27:26.080Z,9.5
2017-11-10T03:27:52.206Z,9.47
2017-11-10T03:28:18.329Z,9.51
2017-11-10T03:28:44.474Z,9.5
2017-11-10T03:29:10.594Z,9.5
2017-11-10T03:29:36.718Z,9.48
2017-11-10T03:30:02.840Z,9.48
2017-11-10T03:30:28.954Z,9.55
2017-11-10T03:30:55.101Z,9.55
2017-11-10T03:31:21.248Z,9.56
2017-11-10T03:31:47.363Z,9.48
2017-11-10T03:32:13.486Z,9.5
2017-11-10T03:32:39.601Z,9.41
2017-11-10T03:33:05.727Z,9.5
2017-11-10T03:33:31.844Z,9.48
2017-11-10T03:33:57.990Z,9.47
2017-11-10T03:34:24.106Z,9.58
2017-11-10T03:34:50.225Z,9.56
2017-11-10T03:35:16.357Z,9.64
2017-11-10T03:35:42.465Z,9.59
2017-11-10T03:36:08.591Z,9.59
2017-11-10T03:36:34.711Z,9.61
2017-11-10T03:37:00.831Z,9.65
2017-11-10T03:37:26.944Z,9.69
2017-11-10T03:37:53.069Z,9.62
2017-11-10T03:38:19.211Z,9.65
2017-11-10T03:38:45.346Z,9.65
2017-11-10T03:39:11.474Z,9.62
2017-11-10T03:39:37.586Z,9.62
2017-11-10T03:40:03.712Z,9.58
2017-11-10T03:40:29.847Z,9.59
2017-11-10T03:40:55.954Z,9.61
2017-11-10T03:41:22.105Z,9.56
2017-11-10T03:41:48.230Z,9.64
2017-11-10T03:42:14.353Z,9.58
2017-11-10T03:42:40.474Z,9.55
2017-11-10T03:43:06.591Z,9.5
2017-11-10T03:43:32.713Z,9.58
2017-11-10T03:43:58.844Z,9.65
2017-11-10T03:44:24.954Z,9.68
2017-11-10T03:44:51.084Z,9.56
2017-11-10T03:45:17.200Z,9.61
2017-11-10T03:45:43.319Z,9.68
2017-11-10T03:46:09.445Z,9.59
2017-11-10T03:46:35.567Z,9.65
2017-11-10T03:47:01.687Z,9.59
2017-11-10T03:47:27.808Z,9.64
2017-11-10T03:47:53.932Z,9.72
2017-11-10T03:48:20.048Z,9.66
2017-11-10T03:48:46.168Z,9.77
2017-11-10T03:49:12.290Z,9.69
2017-11-10T03:49:38.405Z,9.64
2017-11-10T03:50:04.528Z,9.73
2017-11-10T03:50:30.647Z,9.69
2017-11-10T03:50:56.765Z,9.73
2017-11-10T03:51:22.882Z,9.66
2017-11-10T03:51:49.011Z,9.69
2017-11-10T03:52:15.135Z,9.62
2017-11-10T03:52:41.245Z,9.68
2017-11-10T03:53:07.370Z,9.65
2017-11-10T03:53:33.485Z,9.64
2017-11-10T03:53:59.605Z,9.72
2017-11-10T03:54:25.731Z,9.62
2017-11-10T03:54:51.846Z,9.69
2017-11-10T03:55:17.997Z,9.72
2017-11-10T03:55:44.102Z,9.64
2017-11-10T03:56:10.211Z,9.8
2017-11-10T03:56:36.350Z,9.66
2017-11-10T03:57:02.471Z,9.74
2017-11-10T03:57:28.597Z,9.62
2017-11-10T03:57:54.713Z,9.68
2017-11-10T03:58:20.834Z,9.65
2017-11-10T03:58:46.962Z,9.62
2017-11-10T03:59:13.081Z,9.58
2017-11-10T03:59:39.225Z,9.56
2017-11-10T04:00:05.343Z,9.62
2017-11-10T04:00:31.470Z,9.56
2017-11-10T04:00:57.612Z,9.59
2017-11-10T04:01:23.731Z,9.62
2017-11-10T04:01:49.850Z,9.69
2017-11-10T04:02:15.977Z,9.64
2017-11-10T04:02:42.083Z,9.59
2017-11-10T04:03:08.208Z,9.66
2017-11-10T04:03:34.327Z,9.72
2017-11-10T04:04:00.443Z,9.68
2017-11-10T04:04:26.567Z,9.62
2017-11-10T04:04:52.689Z,9.61
2017-11-10T04:05:18.819Z,9.68
2017-11-10T04:05:44.933Z,9.62
2017-11-10T04:06:11.057Z,9.64
2017-11-10T04:06:37.201Z,9.62
2017-11-10T04:07:03.319Z,9.61
2017-11-10T04:07:29.441Z,9.68
2017-11-10T04:07:55.567Z,9.65
2017-11-10T04:08:21.690Z,9.56
2017-11-10T04:08:47.809Z,9.61
2017-11-10T04:09:13.951Z,9.54
2017-11-10T04:09:40.072Z,9.58
2017-11-10T04:10:06.187Z,9.54
2017-11-10T04:10:32.303Z,9.64
2017-11-10T04:10:58.429Z,9.58
2017-11-10T04:11:24.555Z,9.58
2017-11-10T04:11:50.691Z,9.64
2017-11-10T04:12:16.797Z,9.56
2017-11-10T04:12:42.925Z,9.66
2017-11-10T04:13:09.047Z,9.58
2017-11-10T04:13:35.162Z,9.65
2017-11-10T04:14:01.310Z,9.51
2017-11-10T04:14:27.428Z,9.58
2017-11-10T04:14:53.544Z,9.56
2017-11-10T04:15:19.670Z,9.68
2017-11-10T04:15:45.796Z,9.61
2017-11-10T04:16:11.910Z,9.64
2017-11-10T04:16:38.029Z,9.68
2017-11-10T04:17:04.156Z,9.73
2017-11-10T04:17:30.273Z,9.74
2017-11-10T04:17:56.398Z,9.73
2017-11-10T04:18:22.524Z,9.69
2017-11-10T04:18:48.636Z,9.73
2017-11-10T04:19:14.785Z,9.65
2017-11-10T04:19:40.900Z,9.76
2017-11-10T04:20:07.020Z,9.73
2017-11-10T04:20:33.140Z,9.73
2017-11-10T04:20:59.259Z,9.72
2017-11-10T04:21:25.387Z,9.65
2017-11-10T04:21:51.505Z,9.77
2017-11-10T04:22:17.628Z,9.72
2017-11-10T04:22:43.774Z,9.69
2017-11-10T04:23:09.891Z,9.69
2017-11-10T04:23:36.015Z,9.77
2017-11-10T04:24:02.132Z,9.56
2017-11-10T04:24:28.249Z,9.64
2017-11-10T04:24:54.368Z,9.61
2017-11-10T04:25:20.492Z,9.65
2017-11-10T04:25:46.613Z,9.65
2017-11-10T04:26:12.732Z,9.68
2017-11-10T04:26:38.858Z,9.73
2017-11-10T04:27:04.972Z,9.79
2017-11-10T04:27:31.095Z,9.83
2017-11-10T04:27:57.220Z,9.87
2017-11-10T04:28:23.338Z,9.91
2017-11-10T04:28:49.454Z,9.89
2017-11-10T04:29:15.573Z,9.82
2017-11-10T04:29:41.698Z,9.94
2017-11-10T04:30:07.817Z,9.95
2017-11-10T04:30:33.944Z,9.87
2017-11-10T04:31:00.062Z,9.83
2017-11-10T04:31:26.191Z,9.94
2017-11-10T04:31:52.309Z,9.84
2017-11-10T04:32:18.426Z,9.89
2017-11-10T04:32:44.549Z,9.79
2017-11-10T04:33:10.681Z,9.77
2017-11-10T04:33:36.790Z,9.72
2017-11-10T04:34:02.906Z,9.61
2017-11-10T04:34:29.029Z,9.73
2017-11-10T04:34:55.155Z,9.76
2017-11-10T04:35:21.292Z,9.83
2017-11-10T04:35:47.410Z,9.84
2017-11-10T04:36:13.534Z,9.79
2017-11-10T04:36:39.655Z,9.8
2017-11-10T04:37:05.771Z,9.84
2017-11-10T04:37:31.899Z,9.87
2017-11-10T04:37:58.034Z,9.79
2017-11-10T04:38:24.160Z,9.94
2017-11-10T04:38:50.275Z,9.82
2017-11-10T04:39:16.397Z,9.83
2017-11-10T04:39:42.522Z,9.73
2017-11-10T04:40:08.658Z,9.73
2017-11-10T04:40:34.812Z,9.83
2017-11-10T04:41:00.927Z,9.73
2017-11-10T04:41:27.044Z,9.82
2017-11-10T04:41:53.165Z,9.94
2017-11-10T04:42:19.291Z,9.8
2017-11-10T04:42:45.410Z,9.84
2017-11-10T04:43:11.525Z,9.91
2017-11-10T04:43:37.645Z,9.91
2017-11-10T04:44:03.772Z,9.98
2017-11-10T04:44:29.886Z,9.83
2017-11-10T04:44:56.011Z,9.92
2017-11-10T04:45:22.128Z,9.92
2017-11-10T04:45:48.271Z,9.86
2017-11-10T04:46:14.395Z,9.86
2017-11-10T04:46:40.512Z,9.83
2017-11-10T04:47:06.650Z,9.92
2017-11-10T04:47:32.777Z,9.98
2017-11-10T04:47:58.893Z,9.83
2017-11-10T04:48:25.019Z,9.83
2017-11-10T04:48:51.142Z,9.95
2017-11-10T04:49:17.276Z,9.94
2017-11-10T04:49:43.382Z,9.97
2017-11-10T04:50:09.500Z,9.94
2017-11-10T04:50:35.621Z,9.91
2017-11-10T04:51:01.740Z,9.89
2017-11-10T04:51:27.869Z,9.84
2017-11-10T04:51:53.977Z,9.95
2017-11-10T04:52:20.098Z,9.91
2017-11-10T04:52:46.222Z,9.91
2017-11-10T04:53:12.346Z,9.94
2017-11-10T04:53:38.489Z,9.97
2017-11-10T04:54:04.625Z,9.92
2017-11-10T04:54:30.752Z,9.82
2017-11-10T04:54:56.867Z,9.82
2017-11-10T04:55:22.992Z,9.8
2017-11-10T04:55:49.110Z,9.83
2017-11-10T04:56:15.235Z,9.95
2017-11-10T04:56:41.357Z,9.84
2017-11-10T04:57:07.477Z,9.95
2017-11-10T04:57:33.599Z,9.86
2017-11-10T04:57:59.747Z,9.95
2017-11-10T04:58:25.874Z,9.84
2017-11-10T04:58:52.004Z,9.83
2017-11-10T04:59:18.125Z,9.95
2017-11-10T04:59:44.264Z,9.92
2017-11-10T05:00:10.383Z,9.92
2017-11-10T05:00:36.504Z,9.94
2017-11-10T05:01:02.635Z,9.77
2017-11-10T05:01:28.746Z,9.77
2017-11-10T05:01:54.875Z,9.76
2017-11-10T05:02:20.985Z,9.8
2017-11-10T05:02:47.103Z,9.8
2017-11-10T05:03:13.226Z,9.87
2017-11-10T05:03:39.360Z,9.79
2017-11-10T05:04:05.487Z,9.84
2017-11-10T05:04:31.600Z,9.84
2017-11-10T05:04:57.720Z,9.8
2017-11-10T05:05:23.841Z,9.83
2017-11-10T05:05:49.980Z,9.77
2017-11-10T05:06:16.102Z,9.87
2017-11-10T05:06:42.225Z,9.79
2017-11-10T05:07:08.348Z,9.77
2017-11-10T05:07:34.462Z,9.94
2017-11-10T05:08:00.586Z,9.94
2017-11-10T05:08:26.702Z,9.86
2017-11-10T05:08:52.819Z,9.79
2017-11-10T05:09:18.943Z,9.84
2017-11-10T05:09:45.121Z,9.84
2017-11-10T05:10:11.230Z,9.77
2017-11-10T05:10:37.352Z,9.8
2017-11-10T05:11:03.470Z,9.91
2017-11-10T05:11:29.591Z,9.91
2017-11-10T05:11:55.711Z,9.82
2017-11-10T05:12:21.834Z,9.82
2017-11-10T05:12:47.973Z,9.83
2017-11-10T05:13:14.099Z,9.86
2017-11-10T05:13:40.221Z,9.86
2017-11-10T05:14:06.338Z,9.86
2017-11-10T05:14:32.462Z,9.79
2017-11-10T05:14:58.583Z,9.84
2017-11-10T05:15:24.699Z,9.79
2017-11-10T05:15:50.824Z,9.84
2017-11-10T05:16:16.942Z,9.84
2017-11-10T05:16:43.067Z,9.73
2017-11-10T05:17:09.184Z,9.79
2017-11-10T05:17:35.323Z,9.73
2017-11-10T05:18:01.449Z,9.76
2017-11-10T05:18:27.569Z,9.77
2017-11-10T05:18:53.686Z,9.77
2017-11-10T05:19:19.806Z,9.86
2017-11-10T05:19:45.932Z,9.76
2017-11-10T05:20:12.056Z,9.76
2017-11-10T05:20:38.177Z,9.65
2017-11-10T05:21:04.299Z,9.74
2017-11-10T05:21:30.412Z,9.77
2017-11-10T05:21:56.534Z,9.86
2017-11-10T05:22:22.649Z,9.84
2017-11-10T05:22:48.819Z,9.79
2017-11-10T05:23:14.918Z,9.76
2017-11-10T05:23:41.044Z,9.79
2017-11-10T05:24:07.233Z,9.73
2017-11-10T05:24:33.352Z,9.72
2017-11-10T05:24:59.476Z,9.79
2017-11-10T05:25:25.603Z,9.74
2017-11-10T05:25:51.722Z,9.69
2017-11-10T05:26:17.839Z,9.76
2017-11-10T05:26:43.962Z,9.79
2017-11-10T05:27:10.075Z,9.73
2017-11-10T05:27:36.201Z,9.8
2017-11-10T05:28:02.319Z,9.76
2017-11-10T05:28:28.451Z,9.83
2017-11-10T05:28:54.573Z,9.95
2017-11-10T05:29:20.689Z,9.83
2017-11-10T05:29:46.810Z,9.84
2017-11-10T05:30:12.934Z,9.97
2017-11-10T05:30:39.057Z,9.97
2017-11-10T05:31:05.177Z,9.92
2017-11-10T05:31:31.292Z,9.86
2017-11-10T05:31:57.437Z,9.84
2017-11-10T05:32:23.557Z,9.77
2017-11-10T05:32:49.676Z,9.79
2017-11-10T05:33:15.794Z,9.89
2017-11-10T05:33:41.921Z,9.95
2017-11-10T05:34:08.043Z,9.82
2017-11-10T05:34:34.160Z,9.94
2017-11-10T05:35:00.276Z,9.94
2017-11-10T05:35:26.397Z,10.02
2017-11-10T05:35:52.543Z,9.95
2017-11-10T05:36:18.660Z,9.94
2017-11-10T05:36:44.785Z,9.92
2017-11-10T05:37:10.900Z,9.92
2017-11-10T05:37:37.021Z,9.92
2017-11-10T05:38:03.146Z,9.97
2017-11-10T05:38:29.263Z,9.92
2017-11-10T05:38:55.387Z,9.92
2017-11-10T05:39:21.511Z,9.83
2017-11-10T05:39:47.632Z,9.84
2017-11-10T05:40:13.746Z,9.94
2017-11-10T05:40:39.871Z,9.98
2017-11-10T05:41:06.001Z,9.94
2017-11-10T05:41:32.110Z,9.94
2017-11-10T05:41:58.236Z,9.94
2017-11-10T05:42:24.353Z,9.94
2017-11-10T05:42:50.479Z,9.94
2017-11-10T05:43:16.629Z,9.98
2017-11-10T05:43:42.751Z,10.01
2017-11-10T05:44:08.874Z,10.1
2017-11-10T05:44:34.999Z,10.02
2017-11-10T05:45:01.120Z,10.1
2017-11-10T05:45:27.253Z,9.92
2017-11-10T05:45:53.400Z,9.99
2017-11-10T05:46:19.525Z,9.92
2017-11-10T05:46:45.645Z,9.99
2017-11-10T05:47:11.765Z,10.01
2017-11-10T05:47:37.876Z,10.07
2017-11-10T05:48:03.996Z,10.07